sensor_id;sensor_type;location;lat;lon;timestamp;pressure;altitude;pressure_sealevel;temperature;humidity
60465;BME280;46314;52.392;9.758;2023-03-01T00:01:00;102415.28;;;1.95;59.60
60465;BME280;46314;52.392;9.758;2023-03-01T00:03:27;102412.34;;;1.90;59.55
60465;BME280;46314;52.392;9.758;2023-03-01T00:05:53;102415.16;;;1.75;59.55
60465;BME280;46314;52.392;9.758;2023-03-01T00:08:19;102414.06;;;1.69;59.29
60465;BME280;46314;52.392;9.758;2023-03-01T00:10:46;102414.31;;;1.75;60.35
60465;BME280;46314;52.392;9.758;2023-03-01T00:13:12;102416.88;;;1.83;59.52
60465;BME280;46314;52.392;9.758;2023-03-01T00:15:40;102425.16;;;1.61;59.90
60465;BME280;46314;52.392;9.758;2023-03-01T00:18:07;102426.88;;;1.41;60.25
60465;BME280;46314;52.392;9.758;2023-03-01T00:20:33;102428.13;;;0.80;62.36
60465;BME280;46314;52.392;9.758;2023-03-01T00:23:00;102427.28;;;1.38;61.82
60465;BME280;46314;52.392;9.758;2023-03-01T00:25:26;102429.41;;;1.42;60.87
60465;BME280;46314;52.392;9.758;2023-03-01T00:27:53;102430.03;;;1.66;60.04
60465;BME280;46314;52.392;9.758;2023-03-01T00:30:19;102428.44;;;1.78;59.69
60465;BME280;46314;52.392;9.758;2023-03-01T00:32:48;102421.19;;;1.42;60.59
60465;BME280;46314;52.392;9.758;2023-03-01T00:35:14;102412.69;;;1.30;60.30
60465;BME280;46314;52.392;9.758;2023-03-01T00:37:40;102413.53;;;0.51;62.96
60465;BME280;46314;52.392;9.758;2023-03-01T00:40:08;102419.72;;;1.18;61.45
60465;BME280;46314;52.392;9.758;2023-03-01T00:42:34;102414.06;;;1.20;61.54
60465;BME280;46314;52.392;9.758;2023-03-01T00:45:01;102415.81;;;1.06;61.19
60465;BME280;46314;52.392;9.758;2023-03-01T00:47:28;102418.78;;;1.54;60.28
60465;BME280;46314;52.392;9.758;2023-03-01T00:49:56;102410.94;;;1.23;60.97
60465;BME280;46314;52.392;9.758;2023-03-01T00:52:22;102408.41;;;1.49;60.09
60465;BME280;46314;52.392;9.758;2023-03-01T00:54:52;102408.06;;;1.31;60.77
60465;BME280;46314;52.392;9.758;2023-03-01T00:57:18;102407.22;;;1.09;61.49
60465;BME280;46314;52.392;9.758;2023-03-01T00:59:44;102401.81;;;1.16;61.91
60465;BME280;46314;52.392;9.758;2023-03-01T01:02:11;102401.16;;;1.35;61.30
60465;BME280;46314;52.392;9.758;2023-03-01T01:04:37;102404.84;;;1.49;60.46
60465;BME280;46314;52.392;9.758;2023-03-01T01:07:05;102407.38;;;1.50;59.92
60465;BME280;46314;52.392;9.758;2023-03-01T01:09:32;102409.06;;;1.23;61.28
60465;BME280;46314;52.392;9.758;2023-03-01T01:11:58;102403.88;;;1.35;60.81
60465;BME280;46314;52.392;9.758;2023-03-01T01:14:24;102409.25;;;1.22;61.03
60465;BME280;46314;52.392;9.758;2023-03-01T01:16:51;102399.16;;;1.22;61.50
60465;BME280;46314;52.392;9.758;2023-03-01T01:19:17;102399.28;;;1.36;61.06
60465;BME280;46314;52.392;9.758;2023-03-01T01:21:44;102391.22;;;1.27;61.33
60465;BME280;46314;52.392;9.758;2023-03-01T01:24:11;102396.41;;;1.22;61.46
60465;BME280;46314;52.392;9.758;2023-03-01T01:26:38;102393.41;;;1.39;60.94
60465;BME280;46314;52.392;9.758;2023-03-01T01:29:04;102389.56;;;1.33;60.53
60465;BME280;46314;52.392;9.758;2023-03-01T01:31:32;102396.88;;;1.26;61.11
60465;BME280;46314;52.392;9.758;2023-03-01T01:34:00;102390.06;;;0.93;62.47
60465;BME280;46314;52.392;9.758;2023-03-01T01:36:27;102386.31;;;1.23;61.78
60465;BME280;46314;52.392;9.758;2023-03-01T01:38:54;102382.84;;;1.07;61.61
60465;BME280;46314;52.392;9.758;2023-03-01T01:41:23;102371.94;;;1.14;62.25
60465;BME280;46314;52.392;9.758;2023-03-01T01:44:11;102379.13;;;1.15;61.25
60465;BME280;46314;52.392;9.758;2023-03-01T01:46:39;102379.00;;;1.23;61.32
60465;BME280;46314;52.392;9.758;2023-03-01T01:49:15;102375.19;;;1.24;60.93
60465;BME280;46314;52.392;9.758;2023-03-01T01:51:45;102374.75;;;1.21;61.29
60465;BME280;46314;52.392;9.758;2023-03-01T01:54:18;102377.41;;;1.36;61.06
60465;BME280;46314;52.392;9.758;2023-03-01T01:56:50;102372.66;;;1.23;61.29
60465;BME280;46314;52.392;9.758;2023-03-01T01:59:18;102372.59;;;1.16;61.11
60465;BME280;46314;52.392;9.758;2023-03-01T02:01:45;102377.22;;;1.16;61.23
60465;BME280;46314;52.392;9.758;2023-03-01T02:04:11;102372.75;;;0.86;62.30
60465;BME280;46314;52.392;9.758;2023-03-01T02:06:41;102378.28;;;1.15;61.27
60465;BME280;46314;52.392;9.758;2023-03-01T02:09:13;102375.47;;;1.08;61.02
60465;BME280;46314;52.392;9.758;2023-03-01T02:11:41;102372.34;;;0.89;61.51
60465;BME280;46314;52.392;9.758;2023-03-01T02:14:09;102363.22;;;1.04;61.39
60465;BME280;46314;52.392;9.758;2023-03-01T02:16:35;102351.63;;;0.37;63.00
60465;BME280;46314;52.392;9.758;2023-03-01T02:19:03;102354.13;;;0.75;62.73
60465;BME280;46314;52.392;9.758;2023-03-01T02:21:38;102356.75;;;0.62;63.19
60465;BME280;46314;52.392;9.758;2023-03-01T02:24:17;102359.31;;;0.33;63.68
60465;BME280;46314;52.392;9.758;2023-03-01T02:26:51;102358.59;;;0.61;63.54
60465;BME280;46314;52.392;9.758;2023-03-01T02:29:19;102360.19;;;0.70;62.94
60465;BME280;46314;52.392;9.758;2023-03-01T02:31:47;102364.34;;;0.15;64.17
60465;BME280;46314;52.392;9.758;2023-03-01T02:34:16;102362.84;;;0.64;63.54
60465;BME280;46314;52.392;9.758;2023-03-01T02:36:45;102361.75;;;0.80;62.18
60465;BME280;46314;52.392;9.758;2023-03-01T02:39:17;102359.50;;;0.68;62.09
60465;BME280;46314;52.392;9.758;2023-03-01T02:41:47;102353.22;;;0.68;62.48
60465;BME280;46314;52.392;9.758;2023-03-01T02:44:14;102354.50;;;0.50;63.14
60465;BME280;46314;52.392;9.758;2023-03-01T02:46:47;102350.84;;;0.43;63.48
60465;BME280;46314;52.392;9.758;2023-03-01T02:49:23;102345.53;;;0.56;63.22
60465;BME280;46314;52.392;9.758;2023-03-01T02:54:50;102336.09;;;0.37;63.97
60465;BME280;46314;52.392;9.758;2023-03-01T02:57:19;102335.53;;;0.85;62.78
60465;BME280;46314;52.392;9.758;2023-03-01T02:59:46;102335.94;;;0.82;62.84
60465;BME280;46314;52.392;9.758;2023-03-01T03:02:22;102316.69;;;0.69;63.31
60465;BME280;46314;52.392;9.758;2023-03-01T03:04:49;102319.75;;;1.02;62.37
60465;BME280;46314;52.392;9.758;2023-03-01T03:07:15;102314.41;;;0.94;62.14
60465;BME280;46314;52.392;9.758;2023-03-01T03:09:42;102311.59;;;0.87;62.42
60465;BME280;46314;52.392;9.758;2023-03-01T03:12:08;102305.50;;;0.64;63.47
60465;BME280;46314;52.392;9.758;2023-03-01T03:14:35;102305.34;;;0.72;63.04
60465;BME280;46314;52.392;9.758;2023-03-01T03:17:01;102304.13;;;0.74;62.33
60465;BME280;46314;52.392;9.758;2023-03-01T03:19:29;102303.88;;;0.69;62.40
60465;BME280;46314;52.392;9.758;2023-03-01T03:21:55;102302.63;;;0.50;62.93
60465;BME280;46314;52.392;9.758;2023-03-01T03:24:22;102305.88;;;0.61;63.42
60465;BME280;46314;52.392;9.758;2023-03-01T03:26:48;102309.31;;;0.48;64.21
60465;BME280;46314;52.392;9.758;2023-03-01T03:29:14;102299.78;;;0.59;62.70
60465;BME280;46314;52.392;9.758;2023-03-01T03:31:41;102300.75;;;0.72;62.55
60465;BME280;46314;52.392;9.758;2023-03-01T03:34:07;102299.31;;;0.55;63.02
60465;BME280;46314;52.392;9.758;2023-03-01T03:36:35;102290.41;;;0.68;62.68
60465;BME280;46314;52.392;9.758;2023-03-01T03:39:01;102300.16;;;0.55;63.16
60465;BME280;46314;52.392;9.758;2023-03-01T03:41:28;102296.06;;;0.66;62.69
60465;BME280;46314;52.392;9.758;2023-03-01T03:43:54;102290.41;;;0.68;62.84
60465;BME280;46314;52.392;9.758;2023-03-01T03:46:21;102287.41;;;0.63;62.59
60465;BME280;46314;52.392;9.758;2023-03-01T03:48:47;102297.72;;;0.46;63.16
60465;BME280;46314;52.392;9.758;2023-03-01T03:51:15;102294.50;;;0.57;62.51
60465;BME280;46314;52.392;9.758;2023-03-01T03:53:44;102285.38;;;-0.08;63.61
60465;BME280;46314;52.392;9.758;2023-03-01T03:56:11;102293.03;;;0.18;64.03
60465;BME280;46314;52.392;9.758;2023-03-01T03:58:38;102293.31;;;0.23;63.79
60465;BME280;46314;52.392;9.758;2023-03-01T04:01:05;102300.34;;;-1.48;68.07
60465;BME280;46314;52.392;9.758;2023-03-01T04:03:32;102295.75;;;-1.01;67.91
60465;BME280;46314;52.392;9.758;2023-03-01T04:05:59;102302.22;;;-0.34;65.93
60465;BME280;46314;52.392;9.758;2023-03-01T04:08:26;102305.41;;;-0.31;65.89
60465;BME280;46314;52.392;9.758;2023-03-01T04:10:58;102303.22;;;-0.06;65.04
60465;BME280;46314;52.392;9.758;2023-03-01T04:13:26;102299.47;;;-0.05;65.32
60465;BME280;46314;52.392;9.758;2023-03-01T04:15:53;102305.56;;;0.12;64.08
60465;BME280;46314;52.392;9.758;2023-03-01T04:18:23;102302.16;;;0.10;64.63
60465;BME280;46314;52.392;9.758;2023-03-01T04:20:50;102310.47;;;-0.43;65.78
60465;BME280;46314;52.392;9.758;2023-03-01T04:23:18;102311.69;;;0.14;64.44
60465;BME280;46314;52.392;9.758;2023-03-01T04:25:47;102315.69;;;0.18;64.23
60465;BME280;46314;52.392;9.758;2023-03-01T04:28:15;102312.41;;;0.08;65.07
60465;BME280;46314;52.392;9.758;2023-03-01T04:30:41;102313.31;;;-0.21;65.37
60465;BME280;46314;52.392;9.758;2023-03-01T04:33:09;102315.75;;;-0.11;65.02
60465;BME280;46314;52.392;9.758;2023-03-01T04:35:36;102312.53;;;-0.15;65.30
60465;BME280;46314;52.392;9.758;2023-03-01T04:38:03;102322.53;;;0.29;64.25
60465;BME280;46314;52.392;9.758;2023-03-01T04:40:30;102319.84;;;0.51;63.58
60465;BME280;46314;52.392;9.758;2023-03-01T04:42:56;102320.00;;;-0.09;65.29
60465;BME280;46314;52.392;9.758;2023-03-01T04:45:24;102320.53;;;-0.28;65.45
60465;BME280;46314;52.392;9.758;2023-03-01T04:47:51;102314.44;;;-1.44;69.22
60465;BME280;46314;52.392;9.758;2023-03-01T04:50:18;102319.97;;;-1.53;70.27
60465;BME280;46314;52.392;9.758;2023-03-01T04:52:44;102311.03;;;-0.62;68.09
60465;BME280;46314;52.392;9.758;2023-03-01T04:55:11;102304.09;;;-0.35;67.21
60465;BME280;46314;52.392;9.758;2023-03-01T04:57:37;102311.72;;;-0.45;66.67
60465;BME280;46314;52.392;9.758;2023-03-01T05:00:06;102305.94;;;-0.80;67.73
60465;BME280;46314;52.392;9.758;2023-03-01T05:02:34;102312.81;;;-1.54;69.63
60465;BME280;46314;52.392;9.758;2023-03-01T05:05:00;102306.47;;;-1.23;69.97
60465;BME280;46314;52.392;9.758;2023-03-01T05:07:27;102315.38;;;-0.38;66.72
60465;BME280;46314;52.392;9.758;2023-03-01T05:09:53;102303.91;;;-0.48;67.03
60465;BME280;46314;52.392;9.758;2023-03-01T05:12:20;102308.31;;;-0.62;67.43
60465;BME280;46314;52.392;9.758;2023-03-01T05:14:46;102302.06;;;-0.86;68.32
60465;BME280;46314;52.392;9.758;2023-03-01T05:17:13;102288.59;;;-0.34;67.04
60465;BME280;46314;52.392;9.758;2023-03-01T05:19:40;102293.66;;;-0.61;66.60
60465;BME280;46314;52.392;9.758;2023-03-01T05:22:07;102296.19;;;-0.60;66.47
60465;BME280;46314;52.392;9.758;2023-03-01T05:24:34;102290.28;;;-0.48;66.60
60465;BME280;46314;52.392;9.758;2023-03-01T05:27:01;102289.06;;;-0.31;65.91
60465;BME280;46314;52.392;9.758;2023-03-01T05:29:30;102285.09;;;-0.43;66.61
60465;BME280;46314;52.392;9.758;2023-03-01T05:31:58;102281.81;;;-0.09;65.59
60465;BME280;46314;52.392;9.758;2023-03-01T05:34:26;102285.06;;;0.02;64.61
60465;BME280;46314;52.392;9.758;2023-03-01T05:36:54;102283.09;;;-0.05;64.50
60465;BME280;46314;52.392;9.758;2023-03-01T05:39:21;102289.25;;;-0.17;64.92
60465;BME280;46314;52.392;9.758;2023-03-01T05:41:48;102283.41;;;-0.44;65.44
60465;BME280;46314;52.392;9.758;2023-03-01T05:44:17;102278.16;;;-0.31;65.81
60465;BME280;46314;52.392;9.758;2023-03-01T05:46:44;102286.75;;;0.03;64.29
60465;BME280;46314;52.392;9.758;2023-03-01T05:49:10;102285.63;;;-0.78;66.41
60465;BME280;46314;52.392;9.758;2023-03-01T05:51:37;102276.38;;;-0.39;65.87
60465;BME280;46314;52.392;9.758;2023-03-01T05:54:04;102288.78;;;-0.51;65.32
60465;BME280;46314;52.392;9.758;2023-03-01T05:56:32;102283.22;;;-0.43;65.76
60465;BME280;46314;52.392;9.758;2023-03-01T05:58:59;102284.53;;;-0.53;65.60
60465;BME280;46314;52.392;9.758;2023-03-01T06:01:25;102286.59;;;-0.26;65.75
60465;BME280;46314;52.392;9.758;2023-03-01T06:03:52;102298.75;;;-0.58;65.58
60465;BME280;46314;52.392;9.758;2023-03-01T06:06:18;102288.56;;;-0.79;65.91
60465;BME280;46314;52.392;9.758;2023-03-01T06:08:45;102295.25;;;-0.37;64.94
60465;BME280;46314;52.392;9.758;2023-03-01T06:11:12;102291.59;;;-0.59;65.88
60465;BME280;46314;52.392;9.758;2023-03-01T06:13:39;102291.78;;;-0.46;65.68
60465;BME280;46314;52.392;9.758;2023-03-01T06:16:07;102294.03;;;-0.34;65.95
60465;BME280;46314;52.392;9.758;2023-03-01T06:18:34;102294.59;;;-0.24;64.82
60465;BME280;46314;52.392;9.758;2023-03-01T06:21:01;102294.47;;;-0.01;64.06
60465;BME280;46314;52.392;9.758;2023-03-01T06:23:27;102294.09;;;0.02;63.66
60465;BME280;46314;52.392;9.758;2023-03-01T06:25:53;102294.59;;;-0.39;64.43
60465;BME280;46314;52.392;9.758;2023-03-01T06:28:21;102293.47;;;-0.15;64.36
60465;BME280;46314;52.392;9.758;2023-03-01T06:30:48;102297.03;;;-0.14;64.23
60465;BME280;46314;52.392;9.758;2023-03-01T06:33:15;102296.38;;;-0.61;65.75
60465;BME280;46314;52.392;9.758;2023-03-01T06:35:42;102303.03;;;-0.79;66.74
60465;BME280;46314;52.392;9.758;2023-03-01T06:38:09;102303.16;;;-0.27;66.20
60465;BME280;46314;52.392;9.758;2023-03-01T06:40:35;102297.97;;;-0.52;66.85
60465;BME280;46314;52.392;9.758;2023-03-01T06:43:01;102301.44;;;-0.28;65.90
60465;BME280;46314;52.392;9.758;2023-03-01T06:45:29;102294.50;;;-0.61;68.10
60465;BME280;46314;52.392;9.758;2023-03-01T06:48:02;102295.47;;;-0.39;66.93
60465;BME280;46314;52.392;9.758;2023-03-01T06:50:29;102288.88;;;-0.29;66.07
60465;BME280;46314;52.392;9.758;2023-03-01T06:52:56;102297.50;;;-0.41;66.45
60465;BME280;46314;52.392;9.758;2023-03-01T06:55:23;102302.66;;;-1.13;67.75
60465;BME280;46314;52.392;9.758;2023-03-01T06:57:54;102294.19;;;-1.19;68.83
60465;BME280;46314;52.392;9.758;2023-03-01T07:00:21;102290.22;;;-0.93;68.04
60465;BME280;46314;52.392;9.758;2023-03-01T07:02:49;102293.75;;;-0.54;67.41
60465;BME280;46314;52.392;9.758;2023-03-01T07:05:16;102296.19;;;-0.60;66.58
60465;BME280;46314;52.392;9.758;2023-03-01T07:07:42;102296.69;;;-0.26;66.30
60465;BME280;46314;52.392;9.758;2023-03-01T07:10:10;102307.38;;;-0.54;66.63
60465;BME280;46314;52.392;9.758;2023-03-01T07:12:37;102296.19;;;-0.60;67.10
60465;BME280;46314;52.392;9.758;2023-03-01T07:15:04;102299.88;;;-0.52;67.32
60465;BME280;46314;52.392;9.758;2023-03-01T07:17:31;102292.81;;;-0.32;66.94
60465;BME280;46314;52.392;9.758;2023-03-01T07:19:59;102290.81;;;-0.23;66.46
60465;BME280;46314;52.392;9.758;2023-03-01T07:22:25;102285.78;;;0.10;65.51
60465;BME280;46314;52.392;9.758;2023-03-01T07:24:51;102300.69;;;0.44;64.08
60465;BME280;46314;52.392;9.758;2023-03-01T07:27:18;102288.31;;;0.27;64.86
60465;BME280;46314;52.392;9.758;2023-03-01T07:29:44;102282.31;;;0.16;65.38
60465;BME280;46314;52.392;9.758;2023-03-01T07:32:11;102277.78;;;0.24;65.33
60465;BME280;46314;52.392;9.758;2023-03-01T07:34:37;102276.88;;;0.38;63.87
60465;BME280;46314;52.392;9.758;2023-03-01T07:37:05;102279.50;;;0.46;63.86
60465;BME280;46314;52.392;9.758;2023-03-01T07:39:31;102279.75;;;0.51;64.59
60465;BME280;46314;52.392;9.758;2023-03-01T07:41:59;102275.78;;;0.54;64.40
60465;BME280;46314;52.392;9.758;2023-03-01T07:44:25;102261.69;;;0.50;64.64
60465;BME280;46314;52.392;9.758;2023-03-01T07:46:51;102267.84;;;0.59;64.65
60465;BME280;46314;52.392;9.758;2023-03-01T07:49:18;102275.13;;;0.52;63.91
60465;BME280;46314;52.392;9.758;2023-03-01T07:51:44;102271.84;;;0.56;64.41
60465;BME280;46314;52.392;9.758;2023-03-01T07:54:12;102273.50;;;0.79;63.61
60465;BME280;46314;52.392;9.758;2023-03-01T07:56:38;102265.47;;;0.99;62.70
60465;BME280;46314;52.392;9.758;2023-03-01T07:59:05;102268.22;;;0.56;64.26
60465;BME280;46314;52.392;9.758;2023-03-01T08:01:31;102275.22;;;0.59;64.43
60465;BME280;46314;52.392;9.758;2023-03-01T08:03:57;102267.91;;;0.87;63.50
60465;BME280;46314;52.392;9.758;2023-03-01T08:06:24;102272.34;;;0.88;63.92
60465;BME280;46314;52.392;9.758;2023-03-01T08:08:50;102267.53;;;0.69;64.06
60465;BME280;46314;52.392;9.758;2023-03-01T08:11:18;102264.72;;;1.12;63.12
60465;BME280;46314;52.392;9.758;2023-03-01T08:13:48;102272.41;;;1.23;62.79
60465;BME280;46314;52.392;9.758;2023-03-01T08:16:18;102274.06;;;1.24;62.16
60465;BME280;46314;52.392;9.758;2023-03-01T08:18:44;102267.50;;;1.47;61.42
60465;BME280;46314;52.392;9.758;2023-03-01T08:21:12;102272.09;;;0.62;63.73
60465;BME280;46314;52.392;9.758;2023-03-01T08:23:39;102270.25;;;0.90;63.39
60465;BME280;46314;52.392;9.758;2023-03-01T08:26:07;102263.25;;;1.38;62.34
60465;BME280;46314;52.392;9.758;2023-03-01T08:28:35;102257.38;;;1.41;61.65
60465;BME280;46314;52.392;9.758;2023-03-01T08:31:02;102259.16;;;1.55;61.92
60465;BME280;46314;52.392;9.758;2023-03-01T08:33:29;102260.28;;;1.04;61.40
60465;BME280;46314;52.392;9.758;2023-03-01T08:36:02;102261.16;;;0.83;62.71
60465;BME280;46314;52.392;9.758;2023-03-01T08:38:29;102265.06;;;0.74;63.07
60465;BME280;46314;52.392;9.758;2023-03-01T08:40:59;102263.28;;;1.16;61.96
60465;BME280;46314;52.392;9.758;2023-03-01T08:43:25;102249.31;;;1.32;61.72
60465;BME280;46314;52.392;9.758;2023-03-01T08:45:53;102256.31;;;1.42;61.17
60465;BME280;46314;52.392;9.758;2023-03-01T08:48:20;102259.91;;;1.14;61.46
60465;BME280;46314;52.392;9.758;2023-03-01T08:50:46;102252.25;;;1.31;60.94
60465;BME280;46314;52.392;9.758;2023-03-01T08:53:12;102263.09;;;1.52;60.34
60465;BME280;46314;52.392;9.758;2023-03-01T08:55:39;102256.25;;;2.12;58.86
60465;BME280;46314;52.392;9.758;2023-03-01T08:58:05;102250.66;;;1.85;59.02
60465;BME280;46314;52.392;9.758;2023-03-01T09:00:32;102256.75;;;2.49;58.20
60465;BME280;46314;52.392;9.758;2023-03-01T09:02:59;102263.59;;;2.18;58.57
60465;BME280;46314;52.392;9.758;2023-03-01T09:05:26;102254.34;;;1.64;59.69
60465;BME280;46314;52.392;9.758;2023-03-01T09:07:52;102249.31;;;1.74;59.65
60465;BME280;46314;52.392;9.758;2023-03-01T09:10:19;102249.75;;;2.26;58.66
60465;BME280;46314;52.392;9.758;2023-03-01T09:12:45;102239.66;;;2.33;57.31
60465;BME280;46314;52.392;9.758;2023-03-01T09:15:12;102243.47;;;2.45;57.20
60465;BME280;46314;52.392;9.758;2023-03-01T09:17:38;102242.03;;;2.90;56.37
60465;BME280;46314;52.392;9.758;2023-03-01T09:20:07;102242.03;;;2.90;56.00
60465;BME280;46314;52.392;9.758;2023-03-01T09:22:34;102243.47;;;2.45;56.54
60465;BME280;46314;52.392;9.758;2023-03-01T09:25:00;102241.16;;;2.36;56.58
60465;BME280;46314;52.392;9.758;2023-03-01T09:27:27;102238.19;;;2.31;57.27
60465;BME280;46314;52.392;9.758;2023-03-01T09:29:53;102234.44;;;2.92;55.07
60465;BME280;46314;52.392;9.758;2023-03-01T09:32:20;102239.03;;;2.44;55.56
60465;BME280;46314;52.392;9.758;2023-03-01T09:34:46;102232.69;;;2.37;55.66
60465;BME280;46314;52.392;9.758;2023-03-01T09:37:14;102225.50;;;2.23;55.84
60465;BME280;46314;52.392;9.758;2023-03-01T09:39:40;102220.50;;;2.87;54.06
60465;BME280;46314;52.392;9.758;2023-03-01T09:42:11;102228.72;;;2.46;55.24
60465;BME280;46314;52.392;9.758;2023-03-01T09:44:43;102232.34;;;2.80;54.75
60465;BME280;46314;52.392;9.758;2023-03-01T09:47:16;102224.13;;;2.87;53.68
60465;BME280;46314;52.392;9.758;2023-03-01T09:49:45;102217.41;;;3.75;52.16
60465;BME280;46314;52.392;9.758;2023-03-01T09:52:24;102218.63;;;2.87;53.21
60465;BME280;46314;52.392;9.758;2023-03-01T09:54:54;102227.06;;;2.86;53.48
60465;BME280;46314;52.392;9.758;2023-03-01T09:57:30;102221.38;;;2.87;54.27
60465;BME280;46314;52.392;9.758;2023-03-01T10:00:12;102221.78;;;2.84;54.46
60465;BME280;46314;52.392;9.758;2023-03-01T10:02:43;102228.09;;;2.84;52.52
60465;BME280;46314;52.392;9.758;2023-03-01T10:05:30;102213.75;;;3.02;51.79
60465;BME280;46314;52.392;9.758;2023-03-01T10:08:19;102226.84;;;3.07;51.87
60465;BME280;46314;52.392;9.758;2023-03-01T10:10:51;102224.09;;;3.14;51.36
60465;BME280;46314;52.392;9.758;2023-03-01T10:13:21;102231.28;;;3.01;51.68
60465;BME280;46314;52.392;9.758;2023-03-01T10:15:52;102227.81;;;3.46;51.13
60465;BME280;46314;52.392;9.758;2023-03-01T10:18:22;102224.66;;;3.49;51.36
60465;BME280;46314;52.392;9.758;2023-03-01T10:20:53;102222.38;;;3.26;52.00
60465;BME280;46314;52.392;9.758;2023-03-01T10:23:22;102224.22;;;3.59;52.13
60465;BME280;46314;52.392;9.758;2023-03-01T10:26:00;102217.75;;;3.85;51.78
60465;BME280;46314;52.392;9.758;2023-03-01T10:28:38;102222.31;;;4.05;50.81
60465;BME280;46314;52.392;9.758;2023-03-01T10:31:12;102213.75;;;3.88;51.64
60465;BME280;46314;52.392;9.758;2023-03-01T10:33:40;102228.91;;;3.90;51.02
60465;BME280;46314;52.392;9.758;2023-03-01T10:36:07;102215.25;;;3.84;51.02
60465;BME280;46314;52.392;9.758;2023-03-01T10:38:49;102218.03;;;4.15;50.23
60465;BME280;46314;52.392;9.758;2023-03-01T10:41:15;102208.84;;;3.96;50.86
60465;BME280;46314;52.392;9.758;2023-03-01T10:43:44;102213.47;;;3.51;51.37
60465;BME280;46314;52.392;9.758;2023-03-01T10:46:25;102213.53;;;3.89;50.49
60465;BME280;46314;52.392;9.758;2023-03-01T10:49:07;102211.00;;;3.88;50.29
60465;BME280;46314;52.392;9.758;2023-03-01T10:51:39;102221.38;;;4.56;48.95
60465;BME280;46314;52.392;9.758;2023-03-01T10:54:16;102207.22;;;3.82;50.01
60465;BME280;46314;52.392;9.758;2023-03-01T10:56:48;102208.50;;;3.79;49.75
60465;BME280;46314;52.392;9.758;2023-03-01T10:59:22;102209.25;;;4.00;49.47
60465;BME280;46314;52.392;9.758;2023-03-01T11:02:13;102207.91;;;4.73;47.73
60465;BME280;46314;52.392;9.758;2023-03-01T11:04:59;102202.41;;;4.16;48.33
60465;BME280;46314;52.392;9.758;2023-03-01T11:07:26;102208.44;;;4.31;48.97
60465;BME280;46314;52.392;9.758;2023-03-01T11:09:53;102205.31;;;4.53;48.67
60465;BME280;46314;52.392;9.758;2023-03-01T11:12:20;102199.50;;;4.93;47.41
60465;BME280;46314;52.392;9.758;2023-03-01T11:14:48;102192.69;;;5.39;46.97
60465;BME280;46314;52.392;9.758;2023-03-01T11:17:18;102185.97;;;5.35;45.81
60465;BME280;46314;52.392;9.758;2023-03-01T11:19:59;102193.09;;;4.99;47.36
60465;BME280;46314;52.392;9.758;2023-03-01T11:22:30;102194.34;;;4.78;47.84
60465;BME280;46314;52.392;9.758;2023-03-01T11:25:01;102189.22;;;4.82;46.66
60465;BME280;46314;52.392;9.758;2023-03-01T11:27:38;102185.19;;;5.28;45.86
60465;BME280;46314;52.392;9.758;2023-03-01T11:30:15;102193.28;;;4.54;46.60
60465;BME280;46314;52.392;9.758;2023-03-01T11:32:48;102191.75;;;4.83;45.27
60465;BME280;46314;52.392;9.758;2023-03-01T11:35:19;102179.53;;;4.79;44.78
60465;BME280;46314;52.392;9.758;2023-03-01T11:38:02;102182.31;;;4.98;44.94
60465;BME280;46314;52.392;9.758;2023-03-01T11:40:34;102185.47;;;5.20;44.62
60465;BME280;46314;52.392;9.758;2023-03-01T11:43:09;102186.31;;;4.77;45.98
60465;BME280;46314;52.392;9.758;2023-03-01T11:45:54;102175.41;;;5.32;44.85
60465;BME280;46314;52.392;9.758;2023-03-01T11:48:35;102167.94;;;5.58;45.00
60465;BME280;46314;52.392;9.758;2023-03-01T11:51:20;102164.53;;;5.74;44.93
60465;BME280;46314;52.392;9.758;2023-03-01T11:53:50;102170.75;;;5.14;44.67
60465;BME280;46314;52.392;9.758;2023-03-01T11:56:29;102154.91;;;5.65;43.98
60465;BME280;46314;52.392;9.758;2023-03-01T11:59:18;102152.31;;;5.70;44.35
60465;BME280;46314;52.392;9.758;2023-03-01T12:01:54;102154.63;;;5.55;44.27
60465;BME280;46314;52.392;9.758;2023-03-01T12:04:34;102150.25;;;5.10;45.06
60465;BME280;46314;52.392;9.758;2023-03-01T12:07:06;102147.38;;;5.42;44.00
60465;BME280;46314;52.392;9.758;2023-03-01T12:09:46;102149.09;;;4.99;44.72
60465;BME280;46314;52.392;9.758;2023-03-01T12:12:28;102149.56;;;4.96;45.31
60465;BME280;46314;52.392;9.758;2023-03-01T12:15:09;102143.44;;;4.94;45.50
60465;BME280;46314;52.392;9.758;2023-03-01T12:18:08;102136.41;;;5.54;44.28
60465;BME280;46314;52.392;9.758;2023-03-01T12:20:45;102132.75;;;6.20;43.98
60465;BME280;46314;52.392;9.758;2023-03-01T12:23:31;102128.13;;;5.72;43.94
60465;BME280;46314;52.392;9.758;2023-03-01T12:26:07;102124.72;;;5.40;43.88
60465;BME280;46314;52.392;9.758;2023-03-01T12:28:47;102128.31;;;5.59;44.19
60465;BME280;46314;52.392;9.758;2023-03-01T12:31:32;102122.13;;;5.45;44.26
60465;BME280;46314;52.392;9.758;2023-03-01T12:34:20;102113.41;;;5.66;44.00
60465;BME280;46314;52.392;9.758;2023-03-01T12:36:58;102114.16;;;6.04;42.94
60465;BME280;46314;52.392;9.758;2023-03-01T12:39:40;102110.81;;;5.35;44.68
60465;BME280;46314;52.392;9.758;2023-03-01T12:42:17;102102.34;;;5.36;43.73
60465;BME280;46314;52.392;9.758;2023-03-01T12:45:01;102092.94;;;6.04;42.39
60465;BME280;46314;52.392;9.758;2023-03-01T12:47:49;102094.66;;;5.26;44.46
60465;BME280;46314;52.392;9.758;2023-03-01T12:50:21;102098.28;;;5.20;44.07
60465;BME280;46314;52.392;9.758;2023-03-01T12:52:51;102086.47;;;5.20;43.38
60465;BME280;46314;52.392;9.758;2023-03-01T12:55:26;102082.78;;;5.44;43.27
60465;BME280;46314;52.392;9.758;2023-03-01T12:58:02;102085.44;;;5.51;43.67
60465;BME280;46314;52.392;9.758;2023-03-01T13:00:33;102074.31;;;5.88;43.42
60465;BME280;46314;52.392;9.758;2023-03-01T13:03:11;102079.31;;;6.10;43.08
60465;BME280;46314;52.392;9.758;2023-03-01T13:05:51;102076.22;;;6.18;42.99
60465;BME280;46314;52.392;9.758;2023-03-01T13:08:27;102074.63;;;6.10;43.21
60465;BME280;46314;52.392;9.758;2023-03-01T13:10:58;102069.19;;;5.92;43.05
60465;BME280;46314;52.392;9.758;2023-03-01T13:13:27;102061.28;;;5.53;44.29